Burns Municipal Airport
KBNO : now visible

Airfield :











YOU CAN JOIN US ON...

 
LOGIN :

Register | Disclaimer

   EN    FR    IT 

 









Legend :    VFR   Marginal VFR   IFR   Intensive IFR   Very Intensive IFR
Visi :
Ceiling :
>= 8 km
>= 3000ft
5 to 8 km
1000 to 3000 ft
1500m to 5 km
500 to 1000 ft
800 to 1500m
200 to 500 ft
< 800m
< 200 ft
Symbols :   Thunderstorms  Fog  Heavy snow  Heavy precipitations  Wind > 20 kt






- Airport Elevation : 4148 ft


KBNO - Burns Municipal

CURRENT METAR :
  • 090853Z AUTO 34004KT 10SM OVC031 02/M01 A3016 RMK AO2 SLP220 T00221011 50005

EXPIRED METARs :
  • 090753Z AUTO 31004KT 10SM OVC032 02/M01 A3016 RMK AO2 SLP221 T00221011 400780006
  • 090653Z AUTO 34005KT 10SM OVC031 03/M02 A3015 RMK AO2 SLP217 T00331017

TAF KBNO
Valid from the 09 at 06:00 until the 10 at 06:00 UTC


090520Z 0906/1006 33005KT P6SM OVC035
FM091200 VRB03KT P6SM BKN035 BKN200
FM092000 VRB03KT P6SM SKC



MET'MAP, your aeronautical weather chart ! - Copyright ORBIFLY December 2007 - Disclaimer

ORBIFLY MET'MAP TEAM :

Programming & Development : Alexandra Zaïnal
Concept & original design : Baudouin d'Aumeries
Assistance for programming : Marc-Olivier Méhu
Technical & hardware support : Manuel Goepfert

Contact : metmap@orbifly.com




SOURCES & CREDITS :

   NOAA       Earth
Advisory